Time;durP1;ratioP1;P1;durP2;ratioP2;P2;SDS_P1;SDS_P2;PMS_P1;PMS_P2;Temp;Humidity;BMP_temperature;BMP_pressure;BME280_temperature;BME280_humidity;BME280_pressure;Samples;Min_cycle;Max_cycle;Signal;HPM_P1;HPM_P2
2022/03/25 00:02:00;;;;;;;18.98;11.93;;;;;;;5.99;100.00;97166.88;5042051;28;20163;-65
2022/03/25 00:04:28;;;;;;;20.23;12.20;;;;;;;5.76;100.00;97171.78;5046714;28;20068;-65
2022/03/25 00:06:58;;;;;;;18.67;11.25;;;;;;;5.97;100.00;97163.53;5046833;28;20072;-65
2022/03/25 00:09:26;;;;;;;16.60;11.27;;;;;;;5.92;100.00;97166.44;5046287;28;20064;-65
2022/03/25 00:11:55;;;;;;;17.67;11.10;;;;;;;5.70;100.00;97172.16;5047041;28;20432;-64
2022/03/25 00:14:23;;;;;;;19.17;10.95;;;;;;;5.62;100.00;97171.81;5047540;28;20072;-64
2022/03/25 00:16:51;;;;;;;20.60;11.48;;;;;;;5.59;100.00;97166.78;5046124;28;20064;-66
2022/03/25 00:19:20;;;;;;;19.02;10.50;;;;;;;5.33;100.00;97174.47;5046448;28;20049;-66
2022/03/25 00:21:48;;;;;;;16.55;10.93;;;;;;;5.30;100.00;97166.81;5046194;28;20064;-65
2022/03/25 00:24:17;;;;;;;17.25;10.93;;;;;;;5.11;100.00;97176.72;5061029;28;20064;-65
2022/03/25 00:26:46;;;;;;;16.73;11.48;;;;;;;5.22;100.00;97169.88;5043145;28;20072;-65
2022/03/25 00:29:15;;;;;;;17.45;11.15;;;;;;;5.18;100.00;97170.19;5044898;28;20530;-64
2022/03/25 00:31:43;;;;;;;22.15;12.43;;;;;;;5.17;100.00;97173.75;5046255;28;20578;-65
2022/03/25 00:34:11;;;;;;;19.30;12.00;;;;;;;5.19;100.00;97161.41;5045650;28;20069;-66
2022/03/25 00:36:39;;;;;;;17.38;11.35;;;;;;;5.24;100.00;97167.19;5045422;28;20071;-64
2022/03/25 00:39:09;;;;;;;22.30;12.80;;;;;;;5.14;100.00;97168.69;5044996;28;20064;-64
2022/03/25 00:41:44;;;;;;;19.20;11.75;;;;;;;5.22;100.00;97155.97;5041266;28;20061;-65
2022/03/25 00:44:12;;;;;;;18.30;12.40;;;;;;;5.30;100.00;97160.72;5045946;28;20460;-64
2022/03/25 00:46:41;;;;;;;20.83;11.70;;;;;;;5.24;100.00;97167.19;5046271;28;20057;-64
2022/03/25 00:49:10;;;;;;;21.35;12.10;;;;;;;5.22;100.00;97166.44;5044338;28;20068;-65
2022/03/25 00:51:39;;;;;;;16.20;11.48;;;;;;;5.25;100.00;97163.63;5042984;28;20076;-64
2022/03/25 00:54:08;;;;;;;19.40;12.07;;;;;;;4.97;100.00;97156.66;5045941;28;20057;-67
2022/03/25 00:56:36;;;;;;;16.55;11.65;;;;;;;5.13;100.00;97159.19;5046543;28;20566;-66
2022/03/25 00:59:06;;;;;;;19.70;12.32;;;;;;;4.90;100.00;97150.94;5045449;28;20069;-65
2022/03/25 01:01:34;;;;;;;19.75;11.73;;;;;;;4.69;100.00;97154.84;5046250;28;20451;-66
2022/03/25 01:04:02;;;;;;;18.80;11.82;;;;;;;4.71;100.00;97156.44;5045103;28;20808;-65
2022/03/25 01:06:31;;;;;;;20.85;12.93;;;;;;;4.95;100.00;97153.28;5045852;28;20060;-64
2022/03/25 01:08:59;;;;;;;20.15;12.43;;;;;;;4.97;100.00;97152.25;5045433;28;20081;-64
2022/03/25 01:11:27;;;;;;;16.83;11.55;;;;;;;4.65;100.00;97158.59;5045274;28;20088;-65
2022/03/25 01:13:56;;;;;;;16.15;11.27;;;;;;;4.79;100.00;97158.59;5044005;28;20080;-66
2022/03/25 01:16:25;;;;;;;19.20;11.98;;;;;;;4.82;100.00;97157.56;5044136;28;20111;-66
2022/03/25 01:18:54;;;;;;;18.10;12.00;;;;;;;4.59;100.00;97156.31;5043565;28;20065;-65
2022/03/25 01:21:22;;;;;;;20.77;11.90;;;;;;;4.64;100.00;97156.88;5044354;28;20067;-66
2022/03/25 01:23:50;;;;;;;20.52;11.43;;;;;;;4.46;100.00;97159.66;5044636;28;20114;-65
2022/03/25 01:26:18;;;;;;;20.02;12.35;;;;;;;4.56;100.00;97152.13;5045069;28;20176;-65
2022/03/25 01:28:47;;;;;;;18.45;11.55;;;;;;;4.60;100.00;97152.78;5045946;28;20061;-64
2022/03/25 01:31:15;;;;;;;18.67;12.10;;;;;;;4.55;100.00;97153.06;5044639;28;20069;-65
2022/03/25 01:33:45;;;;;;;20.65;12.93;;;;;;;4.76;100.00;97146.56;5045766;28;20065;-65
2022/03/25 01:36:13;;;;;;;20.85;13.10;;;;;;;4.76;100.00;97148.31;5045042;28;20057;-64
2022/03/25 01:38:41;;;;;;;29.42;14.77;;;;;;;4.31;100.00;97149.28;5044382;28;20083;-65
2022/03/25 01:41:10;;;;;;;23.23;12.73;;;;;;;4.01;100.00;97148.31;5044968;28;20065;-65
2022/03/25 01:43:39;;;;;;;20.95;12.52;;;;;;;4.07;100.00;97152.34;5045491;28;20060;-65
2022/03/25 01:46:07;;;;;;;19.77;12.90;;;;;;;3.98;100.00;97156.31;5045426;28;20524;-67
2022/03/25 01:48:35;;;;;;;20.17;12.25;;;;;;;4.00;100.00;97157.09;5045331;28;20068;-65
2022/03/25 01:51:06;;;;;;;24.42;12.20;;;;;;;3.87;100.00;97163.91;5044069;28;20076;-64
2022/03/25 01:53:34;;;;;;;17.40;11.98;;;;;;;3.85;100.00;97155.31;5047388;28;20091;-64
2022/03/25 01:56:05;;;;;;;16.95;11.73;;;;;;;3.76;100.00;97158.47;5049539;28;20071;-65
2022/03/25 01:58:34;;;;;;;17.85;11.90;;;;;;;4.05;100.00;97156.81;5049145;28;20064;-65
2022/03/25 02:01:04;;;;;;;19.88;12.20;;;;;;;3.82;100.00;97155.53;5048546;28;20069;-66
2022/03/25 02:03:33;;;;;;;17.25;11.45;;;;;;;3.93;100.00;97153.13;5049231;28;20061;-65
2022/03/25 02:06:01;;;;;;;17.77;12.40;;;;;;;3.70;100.00;97153.59;5047889;28;20080;-63
2022/03/25 02:08:31;;;;;;;17.35;11.60;;;;;;;3.62;100.00;97159.22;5048373;28;20076;-66
2022/03/25 02:10:59;;;;;;;23.50;12.35;;;;;;;3.51;100.00;97156.34;5049005;28;20069;-65
2022/03/25 02:13:28;;;;;;;19.10;12.10;;;;;;;3.31;100.00;97150.47;5048252;28;20463;-66
2022/03/25 02:15:56;;;;;;;17.70;13.00;;;;;;;3.34;100.00;97144.25;5049135;28;20064;-66
2022/03/25 02:18:25;;;;;;;20.70;12.45;;;;;;;3.26;100.00;97144.66;5047468;28;20060;-66
2022/03/25 02:20:53;;;;;;;19.73;12.77;;;;;;;3.17;100.00;97144.31;5043649;28;20098;-66
2022/03/25 02:23:23;;;;;;;20.80;12.27;;;;;;;3.41;100.00;97142.16;5048718;28;20079;-65
2022/03/25 02:25:53;;;;;;;18.85;12.20;;;;;;;3.02;100.00;97140.75;5048956;28;20073;-65
2022/03/25 02:28:22;;;;;;;21.02;12.45;;;;;;;3.04;100.00;97147.56;5050849;28;20060;-66
2022/03/25 02:30:50;;;;;;;18.08;12.38;;;;;;;3.13;100.00;97143.63;5048561;28;20065;-65
2022/03/25 02:33:19;;;;;;;17.70;12.25;;;;;;;2.99;100.00;97152.16;5046517;28;20521;-65
2022/03/25 02:35:48;;;;;;;22.80;12.10;;;;;;;2.88;100.00;97145.84;5048976;28;20084;-65
2022/03/25 02:38:18;;;;;;;17.73;12.48;;;;;;;2.92;100.00;97142.16;5046790;28;20535;-65
2022/03/25 02:40:48;;;;;;;22.95;12.18;;;;;;;2.89;100.00;97144.91;5048856;28;20079;-65
2022/03/25 02:43:17;;;;;;;20.42;12.80;;;;;;;3.14;100.00;97145.31;5043588;28;20466;-67
2022/03/25 02:45:45;;;;;;;19.38;12.38;;;;;;;3.23;100.00;97143.97;5046806;28;20068;-65
2022/03/25 02:48:14;;;;;;;22.40;12.45;;;;;;;3.34;100.00;97146.88;5047715;28;20064;-65
2022/03/25 02:50:42;;;;;;;20.17;12.68;;;;;;;3.31;100.00;97145.25;5047833;28;20080;-66
2022/03/25 02:53:10;;;;;;;20.70;12.57;;;;;;;3.32;100.00;97151.31;5047205;28;20069;-66
2022/03/25 02:55:39;;;;;;;19.35;11.75;;;;;;;3.39;100.00;97150.06;5048280;28;20065;-64
2022/03/25 02:58:09;;;;;;;18.13;12.13;;;;;;;3.43;100.00;97150.72;5046510;28;20068;-65
2022/03/25 03:00:37;;;;;;;;;;;;;;;3.32;100.00;97143.50;5045504;28;20087;-65
2022/03/25 03:03:06;;;;;;;19.75;11.90;;;;;;;3.32;100.00;97141.72;5047539;28;20363;-66
2022/03/25 03:05:34;;;;;;;21.15;12.30;;;;;;;3.16;100.00;97143.47;5047619;28;20072;-65
2022/03/25 03:08:02;;;;;;;26.67;13.32;;;;;;;3.05;100.00;97144.03;5047869;28;20534;-65
2022/03/25 03:10:31;;;;;;;20.02;12.48;;;;;;;3.09;100.00;97149.94;5045403;28;20069;-66
2022/03/25 03:13:00;;;;;;;21.52;12.52;;;;;;;3.13;100.00;97148.84;5047446;28;20523;-67
2022/03/25 03:15:29;;;;;;;20.58;11.77;;;;;;;3.11;100.00;97152.47;5045232;28;20105;-66
2022/03/25 03:17:58;;;;;;;20.97;13.03;;;;;;;3.13;100.00;97154.03;5047068;28;20081;-64
2022/03/25 03:20:26;;;;;;;18.50;12.10;;;;;;;3.02;100.00;97154.63;5047082;28;20094;-66
2022/03/25 03:22:57;;;;;;;19.52;13.00;;;;;;;3.15;100.00;97149.59;5046745;28;20099;-65
2022/03/25 03:25:26;;;;;;;22.45;12.68;;;;;;;3.21;100.00;97154.50;5047265;28;20061;-65
2022/03/25 03:27:54;;;;;;;21.55;12.18;;;;;;;3.13;100.00;97150.59;5052754;28;20068;-64
2022/03/25 03:30:22;;;;;;;19.50;12.20;;;;;;;3.13;100.00;97151.44;5046846;28;20534;-66
2022/03/25 03:32:55;;;;;;;22.80;12.85;;;;;;;2.96;100.00;97154.97;5046561;28;20076;-65
2022/03/25 03:35:24;;;;;;;21.88;13.35;;;;;;;3.06;100.00;97145.75;5050213;28;20080;-66
2022/03/25 03:37:53;;;;;;;25.02;13.00;;;;;;;3.14;100.00;97150.53;5047622;28;20064;-66
2022/03/25 03:40:22;;;;;;;20.75;14.02;;;;;;;3.13;100.00;97148.00;5046520;28;20072;-65
2022/03/25 03:42:50;;;;;;;20.35;13.00;;;;;;;3.13;100.00;97148.84;5044506;28;20111;-66
2022/03/25 03:45:19;;;;;;;22.77;13.95;;;;;;;3.12;100.00;97146.31;5046218;28;20057;-66
2022/03/25 03:47:47;;;;;;;22.90;13.35;;;;;;;3.12;100.00;97151.53;5047581;28;20168;-65
2022/03/25 03:50:17;;;;;;;21.55;13.13;;;;;;;3.02;100.00;97151.19;5048782;28;20482;-67
2022/03/25 03:52:46;;;;;;;20.83;12.95;;;;;;;3.20;100.00;97151.94;5046545;28;20067;-65
2022/03/25 03:55:14;;;;;;;24.90;13.70;;;;;;;3.11;100.00;97147.25;5046798;28;20056;-67
2022/03/25 03:57:43;;;;;;;23.60;13.60;;;;;;;3.08;100.00;97140.44;5047697;28;20045;-65
2022/03/25 04:00:13;;;;;;;21.85;13.38;;;;;;;3.12;100.00;97146.31;5048114;28;20084;-64
2022/03/25 04:02:44;;;;;;;23.65;13.88;;;;;;;2.96;100.00;97138.47;5047133;28;20076;-66
2022/03/25 04:05:13;;;;;;;23.98;13.00;;;;;;;3.00;100.00;97146.06;5047069;28;20064;-66
2022/03/25 04:07:44;;;;;;;22.95;13.98;;;;;;;3.05;100.00;97144.03;5048350;28;20499;-65
2022/03/25 04:10:13;;;;;;;19.80;13.15;;;;;;;3.08;100.00;97143.03;5048991;28;20559;-65
2022/03/25 04:12:42;;;;;;;23.65;13.93;;;;;;;2.96;100.00;97141.94;5045883;28;20056;-66
2022/03/25 04:15:12;;;;;;;23.80;14.32;;;;;;;3.05;100.00;97138.81;5045526;28;22508;-65
2022/03/25 04:17:41;;;;;;;;;;;;;;;3.11;100.00;97140.28;5048600;28;20088;-65
2022/03/25 04:20:11;;;;;;;23.55;13.68;;;;;;;3.13;100.00;97143.63;5045317;28;20391;-65
2022/03/25 04:22:39;;;;;;;19.20;12.98;;;;;;;3.08;100.00;97143.03;5045907;28;20068;-65
2022/03/25 04:25:09;;;;;;;22.55;13.45;;;;;;;2.98;100.00;97134.03;5046086;28;20064;-64
2022/03/25 04:27:47;;;;;;;25.23;13.38;;;;;;;3.04;100.00;97144.97;5045655;28;20073;-64
2022/03/25 04:30:18;;;;;;;30.35;14.55;;;;;;;3.02;100.00;97143.34;5045771;28;20076;-66
2022/03/25 04:32:46;;;;;;;40.15;15.18;;;;;;;2.84;100.00;97155.59;5045798;28;20088;-65
2022/03/25 04:35:15;;;;;;;24.70;14.13;;;;;;;3.01;100.00;97150.34;5046379;28;20069;-65
2022/03/25 04:37:44;;;;;;;23.83;13.70;;;;;;;3.14;100.00;97150.53;5044811;28;20064;-64
2022/03/25 04:40:17;;;;;;;24.70;14.30;;;;;;;3.18;100.00;97143.41;5043519;28;20766;-65
2022/03/25 04:42:46;;;;;;;22.30;13.05;;;;;;;2.77;100.00;97151.63;5045565;28;20051;-64
2022/03/25 04:45:14;;;;;;;26.02;13.95;;;;;;;2.51;100.00;97160.75;5046669;28;20079;-65
2022/03/25 04:47:43;;;;;;;27.30;13.65;;;;;;;2.67;100.00;97153.84;5046814;28;20080;-65
2022/03/25 04:50:12;;;;;;;23.17;13.02;;;;;;;2.80;100.00;97160.13;5047111;28;20075;-66
2022/03/25 04:52:41;;;;;;;21.45;13.27;;;;;;;2.98;100.00;97158.31;5046884;28;20476;-65
2022/03/25 04:55:17;;;;;;;22.05;13.70;;;;;;;3.03;100.00;97158.09;5044005;28;20080;-67
2022/03/25 04:57:45;;;;;;;20.67;13.23;;;;;;;3.01;100.00;97165.97;5041603;28;20569;-64
2022/03/25 05:00:15;;;;;;;24.67;14.23;;;;;;;3.18;100.00;97164.25;5044285;28;20072;-66
2022/03/25 05:02:43;;;;;;;27.23;13.43;;;;;;;3.20;100.00;97155.44;5044254;28;20081;-64
2022/03/25 05:05:13;;;;;;;34.72;14.25;;;;;;;2.83;100.00;97164.34;5048295;28;20474;-65
2022/03/25 05:07:42;;;;;;;38.60;15.73;;;;;;;3.06;100.00;97165.72;5048003;28;20428;-64
2022/03/25 05:10:11;;;;;;;27.27;14.07;;;;;;;2.99;100.00;97167.81;5047370;28;20451;-64
2022/03/25 05:12:41;;;;;;;24.02;13.07;;;;;;;2.65;100.00;97167.88;5047448;28;20057;-65
2022/03/25 05:15:10;;;;;;;26.13;13.45;;;;;;;2.69;100.00;97166.81;5043108;28;20077;-65
2022/03/25 05:17:44;;;;;;;27.25;13.82;;;;;;;3.02;100.00;97170.25;5045416;28;20077;-66
2022/03/25 05:20:15;;;;;;;24.13;13.45;;;;;;;3.19;100.00;97165.91;5045779;28;20068;-64
2022/03/25 05:22:43;;;;;;;21.73;13.57;;;;;;;3.14;100.00;97170.53;5043357;28;20064;-67
2022/03/25 05:25:12;;;;;;;25.38;15.10;;;;;;;3.27;100.00;97166.38;5046399;28;20088;-66
2022/03/25 05:27:46;;;;;;;22.50;13.57;;;;;;;3.66;100.00;97170.34;5038911;28;20069;-67
2022/03/25 05:30:14;;;;;;;25.00;13.63;;;;;;;3.68;100.00;97171.06;5049133;28;20071;-66
2022/03/25 05:32:42;;;;;;;22.02;13.23;;;;;;;3.53;100.00;97164.94;5050540;28;20091;-66
2022/03/25 05:35:14;;;;;;;23.75;13.15;;;;;;;3.51;100.00;97175.47;5050576;28;20515;-66
2022/03/25 05:37:43;;;;;;;25.40;14.10;;;;;;;3.43;100.00;97176.78;5050241;28;20072;-65
2022/03/25 05:40:12;;;;;;;25.83;12.65;;;;;;;3.16;100.00;97179.94;5049947;28;20069;-65
2022/03/25 05:42:40;;;;;;;19.08;12.57;;;;;;;3.31;100.00;97181.75;5049985;28;20060;-66
2022/03/25 05:45:11;;;;;;;22.42;12.82;;;;;;;3.52;100.00;97184.97;5050442;28;20071;-65
2022/03/25 05:47:41;;;;;;;20.35;13.18;;;;;;;3.60;100.00;97188.91;5051757;28;20076;-64
2022/03/25 05:50:11;;;;;;;28.50;14.07;;;;;;;3.61;100.00;97185.38;5051416;28;20557;-65
2022/03/25 05:52:40;;;;;;;22.48;13.55;;;;;;;3.80;100.00;97191.28;5051254;28;20038;-65
2022/03/25 05:55:09;;;;;;;22.10;13.18;;;;;;;4.05;100.00;97190.75;5047307;28;20061;-65
2022/03/25 05:57:37;;;;;;;23.45;13.27;;;;;;;4.28;100.00;97189.44;5044850;28;20091;-67
2022/03/25 06:00:08;;;;;;;22.55;13.65;;;;;;;4.58;100.00;97189.44;5033652;28;20065;-66
2022/03/25 06:02:38;;;;;;;21.95;13.25;;;;;;;4.79;100.00;97192.56;5052018;28;20338;-65
2022/03/25 06:05:08;;;;;;;22.88;13.45;;;;;;;5.06;100.00;97186.59;5049198;28;20061;-66
2022/03/25 06:07:37;;;;;;;24.90;13.65;;;;;;;5.23;100.00;97192.50;5051163;28;20459;-65
2022/03/25 06:10:07;;;;;;;30.30;14.07;;;;;;;5.44;100.00;97192.13;5051170;28;20067;-65
2022/03/25 06:12:36;;;;;;;26.63;14.57;;;;;;;5.64;100.00;97183.88;5051108;28;20087;-65
2022/03/25 06:15:05;;;;;;;21.75;13.32;;;;;;;5.86;100.00;97192.97;5051724;28;20056;-65
2022/03/25 06:17:34;;;;;;;22.45;13.60;;;;;;;6.04;100.00;97191.00;5051788;28;20068;-64
2022/03/25 06:20:04;;;;;;;22.77;12.90;;;;;;;6.16;100.00;97191.06;5050760;28;20079;-65
2022/03/25 06:22:33;;;;;;;24.23;13.27;;;;;;;6.35;100.00;97182.81;5050908;28;20661;-65
2022/03/25 06:25:01;;;;;;;20.83;13.45;;;;;;;6.54;100.00;97186.88;5067260;28;20071;-65
2022/03/25 06:27:29;;;;;;;20.50;13.75;;;;;;;6.65;100.00;97187.81;5052291;28;20072;-65
2022/03/25 06:29:57;;;;;;;25.25;14.00;;;;;;;6.58;100.00;97196.19;5049483;28;20076;-66
2022/03/25 06:32:26;;;;;;;21.85;13.50;;;;;;;6.62;100.00;97189.81;5050390;28;20069;-65
2022/03/25 06:34:54;;;;;;;22.73;13.80;;;;;;;6.94;100.00;97182.38;5048279;28;20056;-65
2022/03/25 06:37:24;;;;;;;23.65;13.98;;;;;;;7.07;100.00;97183.25;5049680;28;20063;-64
2022/03/25 06:39:52;;;;;;;23.17;13.98;;;;;;;6.72;100.00;97190.03;5048228;28;20071;-65
2022/03/25 06:42:20;;;;;;;22.45;13.60;;;;;;;7.13;100.00;97190.69;5050644;28;20423;-65
2022/03/25 06:44:49;;;;;;;21.73;13.80;;;;;;;7.10;100.00;97187.44;5051512;28;20090;-65
2022/03/25 06:47:17;;;;;;;24.30;14.55;;;;;;;7.14;100.00;97192.34;5049921;28;20065;-64
2022/03/25 06:49:46;;;;;;;24.15;14.30;;;;;;;7.45;100.00;97194.66;5049244;28;20065;-65
2022/03/25 06:52:15;;;;;;;26.48;14.60;;;;;;;7.53;100.00;97193.16;5048819;28;20067;-65
2022/03/25 06:54:45;;;;;;;22.48;14.18;;;;;;;7.47;100.00;97193.59;5050919;28;20053;-65
2022/03/25 06:57:14;;;;;;;24.35;15.13;;;;;;;7.36;100.00;97190.88;5050279;28;20084;-64
2022/03/25 06:59:43;;;;;;;25.55;14.82;;;;;;;7.57;100.00;97192.03;5050305;28;20068;-67
2022/03/25 07:02:13;;;;;;;23.45;14.07;;;;;;;7.84;100.00;97197.09;5050209;28;20087;-65
2022/03/25 07:04:42;;;;;;;22.33;14.25;;;;;;;7.93;100.00;97195.59;5050365;28;20449;-66
2022/03/25 07:07:12;;;;;;;26.20;14.50;;;;;;;7.95;100.00;97203.34;5050274;28;20522;-65
2022/03/25 07:09:40;;;;;;;24.00;15.20;;;;;;;8.22;97.36;97197.88;5064986;28;20076;-64
2022/03/25 07:12:15;;;;;;;28.25;15.35;;;;;;;8.72;92.85;97203.88;5046488;28;20072;-64
2022/03/25 07:14:43;;;;;;;21.20;15.13;;;;;;;9.35;88.20;97193.81;5024515;28;20468;-63
2022/03/25 07:17:11;;;;;;;23.02;14.57;;;;;;;8.52;94.25;97197.47;5049226;28;20462;-63
2022/03/25 07:19:39;;;;;;;23.40;15.82;;;;;;;9.38;84.56;97190.94;5049804;28;20203;-64
2022/03/25 07:22:08;;;;;;;24.50;14.68;;;;;;;9.00;89.26;97200.00;5049773;28;20194;-64
2022/03/25 07:24:36;;;;;;;22.70;15.30;;;;;;;9.53;89.83;97189.75;5050038;28;20084;-64
2022/03/25 07:27:04;;;;;;;36.88;15.82;;;;;;;9.54;83.43;97196.72;5053240;28;20088;-66
2022/03/25 07:29:34;;;;;;;31.13;16.23;;;;;;;10.02;77.56;97188.50;5044183;28;20155;-64
2022/03/25 07:32:02;;;;;;;24.80;15.63;;;;;;;10.15;74.79;97194.47;5049819;28;20558;-66
2022/03/25 07:34:31;;;;;;;24.90;15.52;;;;;;;9.93;74.42;97197.16;5048486;28;20550;-65
2022/03/25 07:36:59;;;;;;;24.33;15.43;;;;;;;9.79;74.62;97203.50;5044173;28;20168;-64
2022/03/25 07:39:28;;;;;;;26.15;15.77;;;;;;;10.55;68.92;97203.59;5049215;28;20052;-65
2022/03/25 07:41:56;;;;;;;26.70;16.95;;;;;;;10.60;64.31;97202.25;5049676;28;20538;-64
2022/03/25 07:44:24;;;;;;;24.40;15.77;;;;;;;10.69;64.54;97204.13;5050157;28;20076;-64
2022/03/25 07:46:54;;;;;;;27.10;15.82;;;;;;;10.90;63.75;97203.28;5049451;28;20069;-64
2022/03/25 07:49:22;;;;;;;26.77;16.70;;;;;;;10.70;63.12;97204.94;5049240;28;20158;-64
2022/03/25 07:51:51;;;;;;;25.92;16.60;;;;;;;10.71;65.12;97205.81;5049160;28;20064;-63
2022/03/25 07:54:19;;;;;;;25.17;16.25;;;;;;;11.45;59.20;97201.25;5049599;28;20464;-64
2022/03/25 07:56:47;;;;;;;25.75;16.77;;;;;;;11.87;55.44;97201.19;5049461;28;20088;-64
2022/03/25 07:59:15;;;;;;;27.25;16.67;;;;;;;11.79;56.77;97196.53;5049073;28;20037;-64
2022/03/25 08:01:44;;;;;;;27.23;16.65;;;;;;;12.10;56.07;97201.81;5049312;28;20060;-66
2022/03/25 08:04:14;;;;;;;28.83;16.92;;;;;;;12.57;52.28;97205.50;5048624;28;20080;-66
2022/03/25 08:06:43;;;;;;;25.77;17.23;;;;;;;12.57;50.96;97212.59;5049056;28;20083;-64
2022/03/25 08:09:11;;;;;;;28.17;17.85;;;;;;;12.16;53.05;97214.50;5048973;28;20068;-65
2022/03/25 08:11:40;;;;;;;26.80;17.73;;;;;;;12.32;52.91;97212.16;5049165;28;20089;-64
2022/03/25 08:14:08;;;;;;;25.60;17.38;;;;;;;12.32;54.70;97204.22;5048831;28;20462;-64
2022/03/25 08:16:36;;;;;;;27.75;17.80;;;;;;;12.67;51.87;97216.09;5048627;28;20523;-64
2022/03/25 08:19:06;;;;;;;32.47;17.33;;;;;;;12.75;51.39;97218.84;5048901;28;20107;-64
2022/03/25 08:21:35;;;;;;;26.20;17.10;;;;;;;13.20;50.43;97217.44;5048835;28;20064;-65
2022/03/25 08:29:36;;;;;;;28.92;17.65;;;;;;;13.40;49.61;97212.97;5048127;28;20472;-66
2022/03/25 08:32:04;;;;;;;29.67;17.80;;;;;;;13.67;47.58;97209.53;5045557;28;20079;-65
2022/03/25 08:34:33;;;;;;;27.23;18.13;;;;;;;12.83;50.63;97215.50;5048468;28;20068;-64
2022/03/25 08:37:03;;;;;;;28.00;18.38;;;;;;;13.63;48.06;97210.81;5048732;28;20077;-62
2022/03/25 08:39:31;;;;;;;26.25;17.00;;;;;;;13.61;49.46;97215.41;5047967;28;20064;-63
2022/03/25 08:41:59;;;;;;;29.70;18.25;;;;;;;13.71;47.49;97216.19;5048491;28;20089;-63
2022/03/25 08:44:28;;;;;;;29.80;18.30;;;;;;;13.81;47.19;97218.81;5049283;28;20088;-64
2022/03/25 08:46:56;;;;;;;27.65;17.98;;;;;;;13.85;46.18;97222.84;5048969;28;20068;-63
2022/03/25 08:49:24;;;;;;;29.85;18.08;;;;;;;13.72;46.52;97221.34;5048291;28;20076;-63
2022/03/25 08:51:52;;;;;;;30.80;17.98;;;;;;;13.98;44.37;97226.84;5048141;28;20083;-62
2022/03/25 08:54:23;;;;;;;28.87;18.83;;;;;;;14.15;43.91;97224.38;5046481;28;20472;-64
2022/03/25 08:56:53;;;;;;;30.15;19.00;;;;;;;14.25;43.62;97222.50;5048615;28;20495;-64
2022/03/25 08:59:21;;;;;;;34.20;19.80;;;;;;;14.68;42.78;97219.16;5046502;28;20504;-63
2022/03/25 09:01:50;;;;;;;34.22;18.83;;;;;;;14.28;43.38;97219.56;5050308;28;20068;-64
2022/03/25 09:04:18;;;;;;;29.85;18.40;;;;;;;14.15;44.01;97217.25;5055100;28;20057;-64
2022/03/25 09:06:46;;;;;;;33.13;19.83;;;;;;;14.31;44.44;97208.63;5055052;28;20167;-64
2022/03/25 09:09:14;;;;;;;32.90;19.23;;;;;;;14.40;42.79;97213.03;5054816;28;20056;-64
2022/03/25 09:11:44;;;;;;;29.85;19.17;;;;;;;14.90;41.98;97211.69;5053544;28;20487;-63
2022/03/25 09:14:14;;;;;;;34.47;19.33;;;;;;;15.02;42.12;97210.50;5055010;28;20072;-65
2022/03/25 09:16:43;;;;;;;29.60;19.88;;;;;;;14.69;42.77;97212.88;5055269;28;20065;-63
2022/03/25 09:19:12;;;;;;;31.77;20.02;;;;;;;15.23;41.67;97212.81;5054616;28;20072;-64
2022/03/25 09:21:41;;;;;;;32.50;19.90;;;;;;;15.46;41.61;97213.13;5055020;28;20064;-64
2022/03/25 09:24:27;;;;;;;30.15;19.63;;;;;;;15.33;42.23;97215.38;5049595;28;20056;-64
2022/03/25 09:26:57;;;;;;;35.53;20.92;;;;;;;15.07;42.32;97216.19;5056063;28;20081;-63
2022/03/25 09:29:25;;;;;;;29.75;19.13;;;;;;;15.65;41.47;97214.72;5052550;28;20076;-65
2022/03/25 09:31:53;;;;;;;32.00;18.52;;;;;;;15.53;41.78;97219.50;5054692;28;20076;-64
2022/03/25 09:37:27;;;;;;;33.38;18.63;;;;;;;15.57;39.83;97220.00;5052923;28;20071;-65
2022/03/25 09:39:55;;;;;;;33.63;20.38;;;;;;;16.25;39.17;97220.03;5050512;28;20794;-65
2022/03/25 09:42:25;;;;;;;29.33;18.50;;;;;;;15.70;39.98;97216.97;5055304;28;20060;-64
2022/03/25 09:44:54;;;;;;;31.98;18.25;;;;;;;15.83;40.33;97228.84;5054823;28;20072;-66
2022/03/25 09:47:23;;;;;;;28.25;18.15;;;;;;;15.47;41.29;97229.91;5055352;28;20119;-66
2022/03/25 09:49:53;;;;;;;;;;;;;;;15.90;41.88;97221.88;5054646;28;20136;-65
2022/03/25 09:52:22;;;;;;;31.25;19.58;;;;;;;16.05;41.33;97226.59;5054241;28;19956;-66
2022/03/25 09:55:11;;;;;;;33.22;19.85;;;;;;;15.71;42.10;97221.28;5054500;28;20506;-64
2022/03/25 09:57:41;;;;;;;33.08;18.77;;;;;;;15.82;42.24;97211.19;5054169;28;20076;-65
2022/03/25 10:00:14;;;;;;;30.35;19.50;;;;;;;16.33;41.40;97211.22;5054284;28;20527;-66
2022/03/25 10:02:43;;;;;;;29.60;20.02;;;;;;;16.16;41.56;97206.84;5054794;28;20093;-64
2022/03/25 10:05:16;;;;;;;34.15;19.60;;;;;;;16.36;41.27;97211.72;5054089;28;20083;-66
2022/03/25 10:07:47;;;;;;;31.83;18.13;;;;;;;16.00;42.89;97211.13;5054254;28;20072;-64
2022/03/25 10:10:17;;;;;;;32.42;21.38;;;;;;;16.56;40.76;97209.63;5054439;28;20083;-64
2022/03/25 10:12:48;;;;;;;32.60;21.33;;;;;;;16.37;41.16;97205.41;5047695;28;20049;-64
2022/03/25 10:15:19;;;;;;;32.28;19.55;;;;;;;16.29;40.74;97210.72;5047514;28;20052;-65
2022/03/25 10:17:56;;;;;;;33.00;21.02;;;;;;;17.20;39.28;97211.69;5051806;28;20093;-65
2022/03/25 10:20:26;;;;;;;31.77;21.08;;;;;;;16.98;39.57;97205.19;5050296;28;20297;-64
2022/03/25 10:23:01;;;;;;;;;;;;;;;17.57;39.14;97203.13;5051721;28;20075;-65
2022/03/25 10:25:39;;;;;;;34.10;19.80;;;;;;;16.69;38.98;97205.63;5050542;28;19959;-64
2022/03/25 10:28:21;;;;;;;35.42;22.13;;;;;;;16.90;38.82;97202.53;5051383;28;20068;-64
2022/03/25 10:30:51;;;;;;;34.40;21.55;;;;;;;17.87;38.53;97200.75;5043956;28;20634;-65
2022/03/25 10:33:26;;;;;;;31.98;21.00;;;;;;;17.22;37.82;97201.69;5050978;28;20071;-65
2022/03/25 10:35:55;;;;;;;32.53;21.65;;;;;;;17.42;37.60;97205.66;5046368;28;20715;-65
2022/03/25 10:38:25;;;;;;;33.40;22.00;;;;;;;17.76;36.90;97202.78;5050625;28;20081;-65
2022/03/25 10:40:54;;;;;;;34.65;22.08;;;;;;;17.81;36.40;97199.59;5050693;28;20531;-64
2022/03/25 10:43:25;;;;;;;31.67;22.13;;;;;;;17.94;36.14;97201.72;5050900;28;20071;-64
2022/03/25 10:45:53;;;;;;;38.22;22.83;;;;;;;18.24;35.33;97198.25;5050501;28;20073;-64
2022/03/25 10:48:24;;;;;;;35.20;22.63;;;;;;;17.98;35.70;97208.38;5050093;28;20065;-64
2022/03/25 10:50:59;;;;;;;;;;;;;;;18.05;36.10;97198.69;5050962;28;20087;-65
2022/03/25 10:53:28;;;;;;;34.45;21.38;;;;;;;18.52;35.87;97203.13;5051286;28;19951;-66
2022/03/25 10:55:58;;;;;;;35.72;22.70;;;;;;;18.11;36.50;97192.66;5049062;28;20077;-67
2022/03/25 10:58:28;;;;;;;36.55;22.35;;;;;;;18.30;36.17;97195.88;5050822;28;20076;-64
2022/03/25 11:01:00;;;;;;;36.20;23.17;;;;;;;18.25;36.76;97194.56;5048325;28;20065;-66
2022/03/25 11:03:29;;;;;;;34.65;22.83;;;;;;;18.46;35.76;97198.47;5050177;28;20428;-66
2022/03/25 11:05:58;;;;;;;32.28;21.10;;;;;;;18.07;35.18;97195.84;5049457;28;20134;-65
2022/03/25 11:08:26;;;;;;;32.67;23.00;;;;;;;17.97;35.48;97188.03;5050663;28;20077;-64
2022/03/25 11:10:55;;;;;;;33.95;22.13;;;;;;;18.49;34.80;97188.25;5050212;28;20080;-64
2022/03/25 11:13:24;;;;;;;35.70;22.52;;;;;;;18.39;34.26;97182.31;5049980;28;20064;-62
2022/03/25 11:15:55;;;;;;;32.75;21.60;;;;;;;18.41;34.38;97183.00;5050025;28;20067;-64
2022/03/25 11:18:27;;;;;;;33.63;22.27;;;;;;;18.30;34.17;97180.69;5050005;28;20068;-65
2022/03/25 11:20:57;;;;;;;31.88;21.85;;;;;;;18.17;34.43;97185.75;5044075;28;20087;-62
2022/03/25 11:23:29;;;;;;;32.58;21.23;;;;;;;18.33;34.84;97175.00;5050490;28;20053;-64
2022/03/25 11:26:03;;;;;;;32.58;21.20;;;;;;;18.20;34.88;97186.28;5048064;28;20068;-63
2022/03/25 11:28:33;;;;;;;33.50;22.13;;;;;;;18.35;33.80;97185.53;5049967;28;20075;-63
2022/03/25 11:31:05;;;;;;;32.67;21.30;;;;;;;18.23;34.41;97179.72;5049649;28;20065;-62
2022/03/25 11:34:09;;;;;;;32.47;21.58;;;;;;;18.83;34.05;97173.72;5048791;28;20065;-63
2022/03/25 11:36:40;;;;;;;30.92;20.92;;;;;;;18.65;34.30;97173.13;5043358;28;20068;-64
2022/03/25 11:39:24;;;;;;;35.70;23.58;;;;;;;18.78;34.19;97167.22;5049253;28;20076;-62